sensor_id;sensor_type;location;lat;lon;timestamp;P1;durP1;ratioP1;P2;durP2;ratioP2
46835;SDS011;32573;51.290;6.926;2023-06-22T00:01:26;3.00;;;1.45;;
46835;SDS011;32573;51.290;6.926;2023-06-22T00:03:54;3.85;;;1.40;;
46835;SDS011;32573;51.290;6.926;2023-06-22T00:06:23;3.67;;;1.73;;
46835;SDS011;32573;51.290;6.926;2023-06-22T00:08:52;3.53;;;1.60;;
46835;SDS011;32573;51.290;6.926;2023-06-22T00:11:21;3.75;;;1.60;;
46835;SDS011;32573;51.290;6.926;2023-06-22T00:13:50;2.85;;;1.25;;
46835;SDS011;32573;51.290;6.926;2023-06-22T00:16:19;3.45;;;1.50;;
46835;SDS011;32573;51.290;6.926;2023-06-22T00:18:47;3.08;;;1.25;;
46835;SDS011;32573;51.290;6.926;2023-06-22T00:21:16;4.22;;;1.83;;
46835;SDS011;32573;51.290;6.926;2023-06-22T00:23:47;3.85;;;1.83;;
46835;SDS011;32573;51.290;6.926;2023-06-22T00:26:15;3.85;;;1.42;;
46835;SDS011;32573;51.290;6.926;2023-06-22T00:28:46;3.60;;;1.50;;
46835;SDS011;32573;51.290;6.926;2023-06-22T00:31:14;3.45;;;1.40;;
46835;SDS011;32573;51.290;6.926;2023-06-22T00:33:43;4.70;;;1.90;;
46835;SDS011;32573;51.290;6.926;2023-06-22T00:36:11;3.92;;;1.83;;
46835;SDS011;32573;51.290;6.926;2023-06-22T00:38:43;3.85;;;1.67;;
46835;SDS011;32573;51.290;6.926;2023-06-22T00:41:12;4.03;;;1.42;;
46835;SDS011;32573;51.290;6.926;2023-06-22T00:43:41;4.28;;;1.60;;
46835;SDS011;32573;51.290;6.926;2023-06-22T00:46:11;4.13;;;1.67;;
46835;SDS011;32573;51.290;6.926;2023-06-22T00:48:40;4.53;;;1.90;;
46835;SDS011;32573;51.290;6.926;2023-06-22T00:51:10;4.15;;;1.70;;
46835;SDS011;32573;51.290;6.926;2023-06-22T00:53:39;5.72;;;2.00;;
46835;SDS011;32573;51.290;6.926;2023-06-22T00:56:10;5.43;;;2.00;;
46835;SDS011;32573;51.290;6.926;2023-06-22T00:58:39;4.45;;;2.13;;
46835;SDS011;32573;51.290;6.926;2023-06-22T01:01:09;4.93;;;2.13;;
46835;SDS011;32573;51.290;6.926;2023-06-22T01:03:41;4.00;;;1.80;;
46835;SDS011;32573;51.290;6.926;2023-06-22T01:06:10;4.85;;;1.95;;
46835;SDS011;32573;51.290;6.926;2023-06-22T01:08:44;4.45;;;2.20;;
46835;SDS011;32573;51.290;6.926;2023-06-22T01:11:20;4.70;;;1.92;;
46835;SDS011;32573;51.290;6.926;2023-06-22T01:13:54;4.20;;;1.80;;
46835;SDS011;32573;51.290;6.926;2023-06-22T01:16:30;4.15;;;1.88;;
46835;SDS011;32573;51.290;6.926;2023-06-22T01:19:01;4.40;;;2.13;;
46835;SDS011;32573;51.290;6.926;2023-06-22T01:21:39;4.03;;;1.90;;
46835;SDS011;32573;51.290;6.926;2023-06-22T01:24:10;5.05;;;2.30;;
46835;SDS011;32573;51.290;6.926;2023-06-22T01:26:52;5.07;;;2.05;;
46835;SDS011;32573;51.290;6.926;2023-06-22T01:29:28;4.65;;;2.10;;
46835;SDS011;32573;51.290;6.926;2023-06-22T01:31:58;3.80;;;1.90;;
46835;SDS011;32573;51.290;6.926;2023-06-22T01:34:29;5.43;;;2.20;;
46835;SDS011;32573;51.290;6.926;2023-06-22T01:36:59;4.10;;;2.00;;
46835;SDS011;32573;51.290;6.926;2023-06-22T01:39:29;4.65;;;2.20;;
46835;SDS011;32573;51.290;6.926;2023-06-22T01:41:59;4.00;;;1.90;;
46835;SDS011;32573;51.290;6.926;2023-06-22T01:44:29;4.53;;;2.00;;
46835;SDS011;32573;51.290;6.926;2023-06-22T01:46:58;4.30;;;2.00;;
46835;SDS011;32573;51.290;6.926;2023-06-22T01:49:27;4.10;;;2.08;;
46835;SDS011;32573;51.290;6.926;2023-06-22T01:51:57;3.85;;;2.05;;
46835;SDS011;32573;51.290;6.926;2023-06-22T01:54:27;5.18;;;2.40;;
46835;SDS011;32573;51.290;6.926;2023-06-22T01:56:57;6.03;;;2.42;;
46835;SDS011;32573;51.290;6.926;2023-06-22T01:59:27;3.80;;;2.00;;
46835;SDS011;32573;51.290;6.926;2023-06-22T02:02:02;5.47;;;2.60;;
46835;SDS011;32573;51.290;6.926;2023-06-22T02:04:36;3.92;;;2.00;;
46835;SDS011;32573;51.290;6.926;2023-06-22T02:07:12;4.43;;;2.20;;
46835;SDS011;32573;51.290;6.926;2023-06-22T02:09:44;3.80;;;2.00;;
46835;SDS011;32573;51.290;6.926;2023-06-22T02:12:17;4.45;;;2.17;;
46835;SDS011;32573;51.290;6.926;2023-06-22T02:14:50;4.32;;;2.28;;
46835;SDS011;32573;51.290;6.926;2023-06-22T02:17:19;4.18;;;2.13;;
46835;SDS011;32573;51.290;6.926;2023-06-22T02:19:50;4.47;;;2.17;;
46835;SDS011;32573;51.290;6.926;2023-06-22T02:22:19;6.07;;;2.60;;
46835;SDS011;32573;51.290;6.926;2023-06-22T02:24:48;4.60;;;2.00;;
46835;SDS011;32573;51.290;6.926;2023-06-22T02:27:16;4.40;;;2.20;;
46835;SDS011;32573;51.290;6.926;2023-06-22T02:29:45;4.15;;;2.05;;
46835;SDS011;32573;51.290;6.926;2023-06-22T02:32:15;4.28;;;2.10;;
46835;SDS011;32573;51.290;6.926;2023-06-22T02:34:46;4.72;;;2.10;;
46835;SDS011;32573;51.290;6.926;2023-06-22T02:37:15;4.88;;;2.30;;
46835;SDS011;32573;51.290;6.926;2023-06-22T02:39:44;3.83;;;1.90;;
46835;SDS011;32573;51.290;6.926;2023-06-22T02:42:13;4.45;;;2.20;;
46835;SDS011;32573;51.290;6.926;2023-06-22T02:44:42;4.68;;;1.90;;
46835;SDS011;32573;51.290;6.926;2023-06-22T02:47:12;4.60;;;2.13;;
46835;SDS011;32573;51.290;6.926;2023-06-22T02:49:42;4.28;;;2.17;;
46835;SDS011;32573;51.290;6.926;2023-06-22T02:52:12;5.03;;;2.20;;
46835;SDS011;32573;51.290;6.926;2023-06-22T02:54:40;4.30;;;2.00;;
46835;SDS011;32573;51.290;6.926;2023-06-22T02:57:09;4.50;;;2.17;;
46835;SDS011;32573;51.290;6.926;2023-06-22T02:59:41;4.82;;;1.98;;
46835;SDS011;32573;51.290;6.926;2023-06-22T03:02:12;4.63;;;2.10;;
46835;SDS011;32573;51.290;6.926;2023-06-22T03:04:43;4.43;;;2.15;;
46835;SDS011;32573;51.290;6.926;2023-06-22T03:07:16;4.78;;;2.10;;
46835;SDS011;32573;51.290;6.926;2023-06-22T03:09:46;5.55;;;2.30;;
46835;SDS011;32573;51.290;6.926;2023-06-22T03:12:14;4.45;;;2.35;;
46835;SDS011;32573;51.290;6.926;2023-06-22T03:14:53;3.80;;;1.90;;
46835;SDS011;32573;51.290;6.926;2023-06-22T03:17:22;4.22;;;1.98;;
46835;SDS011;32573;51.290;6.926;2023-06-22T03:19:52;3.95;;;1.90;;
46835;SDS011;32573;51.290;6.926;2023-06-22T03:22:21;4.07;;;2.00;;
46835;SDS011;32573;51.290;6.926;2023-06-22T03:24:49;3.95;;;1.90;;
46835;SDS011;32573;51.290;6.926;2023-06-22T03:27:18;3.70;;;1.88;;
46835;SDS011;32573;51.290;6.926;2023-06-22T03:29:46;4.20;;;1.80;;
46835;SDS011;32573;51.290;6.926;2023-06-22T03:32:15;4.00;;;2.05;;
46835;SDS011;32573;51.290;6.926;2023-06-22T03:34:43;4.05;;;2.05;;
46835;SDS011;32573;51.290;6.926;2023-06-22T03:37:15;4.55;;;2.08;;
46835;SDS011;32573;51.290;6.926;2023-06-22T03:39:43;3.80;;;1.90;;
46835;SDS011;32573;51.290;6.926;2023-06-22T03:42:13;4.25;;;2.03;;
46835;SDS011;32573;51.290;6.926;2023-06-22T03:44:42;5.25;;;2.80;;
46835;SDS011;32573;51.290;6.926;2023-06-22T03:47:10;4.32;;;2.22;;
46835;SDS011;32573;51.290;6.926;2023-06-22T03:49:39;4.65;;;2.30;;
46835;SDS011;32573;51.290;6.926;2023-06-22T03:52:07;4.65;;;2.22;;
46835;SDS011;32573;51.290;6.926;2023-06-22T03:54:37;4.40;;;2.30;;
46835;SDS011;32573;51.290;6.926;2023-06-22T03:57:06;4.85;;;2.45;;
46835;SDS011;32573;51.290;6.926;2023-06-22T03:59:34;4.47;;;2.15;;
46835;SDS011;32573;51.290;6.926;2023-06-22T04:02:03;4.63;;;2.50;;
46835;SDS011;32573;51.290;6.926;2023-06-22T04:04:32;4.63;;;2.30;;
46835;SDS011;32573;51.290;6.926;2023-06-22T04:07:02;4.88;;;2.40;;
46835;SDS011;32573;51.290;6.926;2023-06-22T04:09:31;4.95;;;2.40;;
46835;SDS011;32573;51.290;6.926;2023-06-22T04:12:01;4.40;;;2.58;;
46835;SDS011;32573;51.290;6.926;2023-06-22T04:14:29;4.50;;;2.50;;
46835;SDS011;32573;51.290;6.926;2023-06-22T04:16:58;6.68;;;3.10;;
46835;SDS011;32573;51.290;6.926;2023-06-22T04:19:26;5.88;;;3.10;;
46835;SDS011;32573;51.290;6.926;2023-06-22T04:21:55;5.85;;;3.00;;
46835;SDS011;32573;51.290;6.926;2023-06-22T04:24:23;4.50;;;2.40;;
46835;SDS011;32573;51.290;6.926;2023-06-22T04:26:52;4.55;;;2.45;;
46835;SDS011;32573;51.290;6.926;2023-06-22T04:29:23;5.75;;;2.58;;
46835;SDS011;32573;51.290;6.926;2023-06-22T04:31:57;5.22;;;2.20;;
46835;SDS011;32573;51.290;6.926;2023-06-22T04:34:29;4.78;;;2.28;;
46835;SDS011;32573;51.290;6.926;2023-06-22T04:36:58;4.93;;;2.50;;
46835;SDS011;32573;51.290;6.926;2023-06-22T04:39:26;4.43;;;2.25;;
46835;SDS011;32573;51.290;6.926;2023-06-22T04:41:55;4.60;;;2.40;;
46835;SDS011;32573;51.290;6.926;2023-06-22T04:44:28;4.63;;;2.60;;
46835;SDS011;32573;51.290;6.926;2023-06-22T04:46:57;4.43;;;2.40;;
46835;SDS011;32573;51.290;6.926;2023-06-22T04:49:29;4.70;;;2.50;;
46835;SDS011;32573;51.290;6.926;2023-06-22T04:52:01;5.35;;;2.30;;
46835;SDS011;32573;51.290;6.926;2023-06-22T04:54:31;4.82;;;2.58;;
46835;SDS011;32573;51.290;6.926;2023-06-22T04:57:00;4.63;;;2.30;;
46835;SDS011;32573;51.290;6.926;2023-06-22T04:59:31;6.10;;;2.53;;
46835;SDS011;32573;51.290;6.926;2023-06-22T05:02:00;4.85;;;2.58;;
46835;SDS011;32573;51.290;6.926;2023-06-22T05:04:30;4.85;;;2.47;;
46835;SDS011;32573;51.290;6.926;2023-06-22T05:06:59;4.57;;;2.58;;
46835;SDS011;32573;51.290;6.926;2023-06-22T05:09:28;4.90;;;2.42;;
46835;SDS011;32573;51.290;6.926;2023-06-22T05:11:57;4.57;;;2.20;;
46835;SDS011;32573;51.290;6.926;2023-06-22T05:14:27;4.18;;;2.20;;
46835;SDS011;32573;51.290;6.926;2023-06-22T05:16:57;4.90;;;2.30;;
46835;SDS011;32573;51.290;6.926;2023-06-22T05:19:31;4.35;;;2.20;;
46835;SDS011;32573;51.290;6.926;2023-06-22T05:22:01;3.80;;;1.92;;
46835;SDS011;32573;51.290;6.926;2023-06-22T05:24:30;4.35;;;2.10;;
46835;SDS011;32573;51.290;6.926;2023-06-22T05:26:59;5.53;;;2.30;;
46835;SDS011;32573;51.290;6.926;2023-06-22T05:29:27;4.45;;;2.40;;
46835;SDS011;32573;51.290;6.926;2023-06-22T05:31:57;4.50;;;2.35;;
46835;SDS011;32573;51.290;6.926;2023-06-22T05:34:26;4.68;;;2.35;;
46835;SDS011;32573;51.290;6.926;2023-06-22T05:36:55;4.22;;;2.25;;
46835;SDS011;32573;51.290;6.926;2023-06-22T05:39:27;4.63;;;2.47;;
46835;SDS011;32573;51.290;6.926;2023-06-22T05:41:55;5.72;;;2.60;;
46835;SDS011;32573;51.290;6.926;2023-06-22T05:44:24;4.32;;;2.30;;
46835;SDS011;32573;51.290;6.926;2023-06-22T05:46:52;5.03;;;2.30;;
46835;SDS011;32573;51.290;6.926;2023-06-22T05:49:22;4.43;;;2.42;;
46835;SDS011;32573;51.290;6.926;2023-06-22T05:51:59;4.15;;;2.30;;
46835;SDS011;32573;51.290;6.926;2023-06-22T05:54:28;4.03;;;2.30;;
46835;SDS011;32573;51.290;6.926;2023-06-22T05:56:57;5.38;;;2.20;;
46835;SDS011;32573;51.290;6.926;2023-06-22T05:59:25;6.40;;;3.20;;
46835;SDS011;32573;51.290;6.926;2023-06-22T06:01:54;5.63;;;2.53;;
46835;SDS011;32573;51.290;6.926;2023-06-22T06:04:24;4.97;;;2.78;;
46835;SDS011;32573;51.290;6.926;2023-06-22T06:06:52;4.97;;;3.00;;
46835;SDS011;32573;51.290;6.926;2023-06-22T06:09:21;4.95;;;2.60;;
46835;SDS011;32573;51.290;6.926;2023-06-22T06:11:50;4.97;;;2.58;;
46835;SDS011;32573;51.290;6.926;2023-06-22T06:14:18;4.53;;;2.22;;
46835;SDS011;32573;51.290;6.926;2023-06-22T06:16:47;5.10;;;2.47;;
46835;SDS011;32573;51.290;6.926;2023-06-22T06:19:16;4.28;;;2.15;;
46835;SDS011;32573;51.290;6.926;2023-06-22T06:21:46;5.75;;;2.30;;
46835;SDS011;32573;51.290;6.926;2023-06-22T06:24:15;4.88;;;2.30;;
46835;SDS011;32573;51.290;6.926;2023-06-22T06:26:43;4.00;;;2.03;;
46835;SDS011;32573;51.290;6.926;2023-06-22T06:29:12;4.18;;;2.28;;
46835;SDS011;32573;51.290;6.926;2023-06-22T06:31:43;4.10;;;2.15;;
46835;SDS011;32573;51.290;6.926;2023-06-22T06:34:12;5.25;;;2.38;;
46835;SDS011;32573;51.290;6.926;2023-06-22T06:36:40;4.57;;;2.22;;
46835;SDS011;32573;51.290;6.926;2023-06-22T06:39:10;4.30;;;2.53;;
46835;SDS011;32573;51.290;6.926;2023-06-22T06:41:40;4.55;;;2.70;;
46835;SDS011;32573;51.290;6.926;2023-06-22T06:44:14;5.65;;;2.30;;
46835;SDS011;32573;51.290;6.926;2023-06-22T06:46:43;4.20;;;2.22;;
46835;SDS011;32573;51.290;6.926;2023-06-22T06:49:12;4.85;;;2.38;;
46835;SDS011;32573;51.290;6.926;2023-06-22T06:51:41;5.40;;;2.47;;
46835;SDS011;32573;51.290;6.926;2023-06-22T06:54:11;4.35;;;2.38;;
46835;SDS011;32573;51.290;6.926;2023-06-22T06:56:40;4.93;;;2.70;;
46835;SDS011;32573;51.290;6.926;2023-06-22T06:59:15;4.65;;;2.50;;
46835;SDS011;32573;51.290;6.926;2023-06-22T07:01:43;4.88;;;2.40;;
46835;SDS011;32573;51.290;6.926;2023-06-22T07:04:13;5.07;;;2.70;;
46835;SDS011;32573;51.290;6.926;2023-06-22T07:06:41;5.40;;;2.60;;
46835;SDS011;32573;51.290;6.926;2023-06-22T07:09:11;4.53;;;2.63;;
46835;SDS011;32573;51.290;6.926;2023-06-22T07:11:40;4.60;;;2.63;;
46835;SDS011;32573;51.290;6.926;2023-06-22T07:14:08;5.20;;;2.80;;
46835;SDS011;32573;51.290;6.926;2023-06-22T07:16:37;4.95;;;2.60;;
46835;SDS011;32573;51.290;6.926;2023-06-22T07:19:07;7.15;;;3.00;;
46835;SDS011;32573;51.290;6.926;2023-06-22T07:21:36;5.13;;;2.80;;
46835;SDS011;32573;51.290;6.926;2023-06-22T07:24:06;5.72;;;2.78;;
46835;SDS011;32573;51.290;6.926;2023-06-22T07:26:36;4.78;;;2.97;;
46835;SDS011;32573;51.290;6.926;2023-06-22T07:29:05;5.20;;;3.30;;
46835;SDS011;32573;51.290;6.926;2023-06-22T07:31:34;6.00;;;3.70;;
46835;SDS011;32573;51.290;6.926;2023-06-22T07:34:03;5.22;;;3.00;;
46835;SDS011;32573;51.290;6.926;2023-06-22T07:36:31;5.70;;;3.22;;
46835;SDS011;32573;51.290;6.926;2023-06-22T07:39:02;5.30;;;3.22;;
46835;SDS011;32573;51.290;6.926;2023-06-22T07:41:32;6.03;;;3.63;;
46835;SDS011;32573;51.290;6.926;2023-06-22T07:44:03;6.00;;;3.72;;
46835;SDS011;32573;51.290;6.926;2023-06-22T07:46:32;6.65;;;4.18;;
46835;SDS011;32573;51.290;6.926;2023-06-22T07:49:01;6.07;;;3.80;;
46835;SDS011;32573;51.290;6.926;2023-06-22T07:51:29;6.30;;;3.95;;
46835;SDS011;32573;51.290;6.926;2023-06-22T07:53:58;6.22;;;3.78;;
46835;SDS011;32573;51.290;6.926;2023-06-22T07:56:26;4.97;;;3.08;;
46835;SDS011;32573;51.290;6.926;2023-06-22T07:58:55;7.20;;;3.38;;
46835;SDS011;32573;51.290;6.926;2023-06-22T08:01:26;4.97;;;2.92;;
46835;SDS011;32573;51.290;6.926;2023-06-22T08:03:55;5.70;;;3.50;;
46835;SDS011;32573;51.290;6.926;2023-06-22T08:06:23;5.90;;;3.40;;
46835;SDS011;32573;51.290;6.926;2023-06-22T08:08:52;5.30;;;3.25;;
46835;SDS011;32573;51.290;6.926;2023-06-22T08:11:24;5.03;;;3.05;;
46835;SDS011;32573;51.290;6.926;2023-06-22T08:13:52;5.90;;;3.17;;
46835;SDS011;32573;51.290;6.926;2023-06-22T08:16:23;5.45;;;2.95;;
46835;SDS011;32573;51.290;6.926;2023-06-22T08:18:53;7.38;;;3.65;;
46835;SDS011;32573;51.290;6.926;2023-06-22T08:21:22;5.55;;;3.33;;
46835;SDS011;32573;51.290;6.926;2023-06-22T08:23:51;5.43;;;3.30;;
46835;SDS011;32573;51.290;6.926;2023-06-22T08:26:19;5.93;;;3.63;;
46835;SDS011;32573;51.290;6.926;2023-06-22T08:28:48;6.28;;;3.47;;
46835;SDS011;32573;51.290;6.926;2023-06-22T08:31:17;5.95;;;3.35;;
46835;SDS011;32573;51.290;6.926;2023-06-22T08:33:46;5.72;;;3.60;;
46835;SDS011;32573;51.290;6.926;2023-06-22T08:36:19;5.05;;;3.03;;
46835;SDS011;32573;51.290;6.926;2023-06-22T08:38:48;6.20;;;3.38;;
46835;SDS011;32573;51.290;6.926;2023-06-22T08:41:18;5.80;;;3.03;;
46835;SDS011;32573;51.290;6.926;2023-06-22T08:43:47;5.20;;;3.00;;
46835;SDS011;32573;51.290;6.926;2023-06-22T08:46:15;5.40;;;2.75;;
46835;SDS011;32573;51.290;6.926;2023-06-22T08:48:46;5.10;;;2.95;;
46835;SDS011;32573;51.290;6.926;2023-06-22T08:51:15;5.82;;;3.55;;
46835;SDS011;32573;51.290;6.926;2023-06-22T08:53:45;5.47;;;3.40;;
46835;SDS011;32573;51.290;6.926;2023-06-22T08:56:13;5.50;;;3.40;;
46835;SDS011;32573;51.290;6.926;2023-06-22T08:58:42;7.30;;;4.13;;
46835;SDS011;32573;51.290;6.926;2023-06-22T09:01:10;5.40;;;3.40;;
46835;SDS011;32573;51.290;6.926;2023-06-22T09:03:39;4.82;;;2.90;;
46835;SDS011;32573;51.290;6.926;2023-06-22T09:06:08;5.60;;;3.55;;
46835;SDS011;32573;51.290;6.926;2023-06-22T09:08:37;6.60;;;3.65;;
46835;SDS011;32573;51.290;6.926;2023-06-22T09:11:07;6.38;;;3.92;;
46835;SDS011;32573;51.290;6.926;2023-06-22T09:13:35;5.47;;;3.20;;
46835;SDS011;32573;51.290;6.926;2023-06-22T09:16:04;6.78;;;3.50;;
46835;SDS011;32573;51.290;6.926;2023-06-22T09:18:33;6.32;;;3.83;;
46835;SDS011;32573;51.290;6.926;2023-06-22T09:21:03;5.75;;;3.35;;
46835;SDS011;32573;51.290;6.926;2023-06-22T09:23:31;5.93;;;3.60;;
46835;SDS011;32573;51.290;6.926;2023-06-22T09:26:00;6.55;;;3.95;;
46835;SDS011;32573;51.290;6.926;2023-06-22T09:28:32;5.43;;;3.53;;
46835;SDS011;32573;51.290;6.926;2023-06-22T09:31:01;4.70;;;3.08;;
46835;SDS011;32573;51.290;6.926;2023-06-22T09:33:29;6.60;;;3.40;;
46835;SDS011;32573;51.290;6.926;2023-06-22T09:35:57;6.55;;;3.80;;
46835;SDS011;32573;51.290;6.926;2023-06-22T09:38:26;6.07;;;3.67;;
46835;SDS011;32573;51.290;6.926;2023-06-22T09:40:55;6.07;;;3.47;;
46835;SDS011;32573;51.290;6.926;2023-06-22T09:43:23;5.82;;;3.53;;
46835;SDS011;32573;51.290;6.926;2023-06-22T09:45:53;6.00;;;3.60;;
46835;SDS011;32573;51.290;6.926;2023-06-22T09:48:22;5.68;;;3.33;;
46835;SDS011;32573;51.290;6.926;2023-06-22T09:50:50;5.82;;;3.55;;
46835;SDS011;32573;51.290;6.926;2023-06-22T09:53:19;5.32;;;3.13;;
46835;SDS011;32573;51.290;6.926;2023-06-22T09:55:47;5.53;;;3.13;;
46835;SDS011;32573;51.290;6.926;2023-06-22T09:58:15;5.97;;;3.47;;
46835;SDS011;32573;51.290;6.926;2023-06-22T10:00:44;5.35;;;3.20;;
46835;SDS011;32573;51.290;6.926;2023-06-22T10:03:14;5.28;;;3.08;;
46835;SDS011;32573;51.290;6.926;2023-06-22T10:05:43;5.45;;;3.42;;
46835;SDS011;32573;51.290;6.926;2023-06-22T10:08:13;5.10;;;3.30;;
46835;SDS011;32573;51.290;6.926;2023-06-22T10:10:44;5.55;;;3.58;;
46835;SDS011;32573;51.290;6.926;2023-06-22T10:13:13;5.47;;;3.28;;
46835;SDS011;32573;51.290;6.926;2023-06-22T10:15:41;5.40;;;3.33;;
46835;SDS011;32573;51.290;6.926;2023-06-22T10:18:13;5.35;;;3.30;;
46835;SDS011;32573;51.290;6.926;2023-06-22T10:20:42;5.85;;;3.50;;
46835;SDS011;32573;51.290;6.926;2023-06-22T10:23:10;7.32;;;4.40;;
46835;SDS011;32573;51.290;6.926;2023-06-22T10:25:39;6.93;;;3.95;;
46835;SDS011;32573;51.290;6.926;2023-06-22T10:28:07;6.15;;;3.90;;
46835;SDS011;32573;51.290;6.926;2023-06-22T10:30:36;8.10;;;4.80;;
46835;SDS011;32573;51.290;6.926;2023-06-22T10:33:05;7.40;;;5.18;;
46835;SDS011;32573;51.290;6.926;2023-06-22T10:35:34;7.97;;;5.22;;
46835;SDS011;32573;51.290;6.926;2023-06-22T10:38:04;7.75;;;5.22;;
46835;SDS011;32573;51.290;6.926;2023-06-22T10:40:33;7.00;;;4.43;;
46835;SDS011;32573;51.290;6.926;2023-06-22T10:43:02;7.68;;;4.28;;
46835;SDS011;32573;51.290;6.926;2023-06-22T10:45:30;6.82;;;4.07;;
46835;SDS011;32573;51.290;6.926;2023-06-22T10:47:59;7.18;;;3.92;;
46835;SDS011;32573;51.290;6.926;2023-06-22T10:50:28;6.07;;;4.07;;
46835;SDS011;32573;51.290;6.926;2023-06-22T10:52:57;6.07;;;3.88;;
46835;SDS011;32573;51.290;6.926;2023-06-22T10:55:26;6.60;;;3.88;;
46835;SDS011;32573;51.290;6.926;2023-06-22T10:58:13;6.15;;;3.90;;
46835;SDS011;32573;51.290;6.926;2023-06-22T11:00:41;6.15;;;4.03;;
46835;SDS011;32573;51.290;6.926;2023-06-22T11:03:09;6.47;;;4.18;;
46835;SDS011;32573;51.290;6.926;2023-06-22T11:05:40;7.82;;;4.63;;
46835;SDS011;32573;51.290;6.926;2023-06-22T11:08:14;7.40;;;4.30;;
46835;SDS011;32573;51.290;6.926;2023-06-22T11:10:43;7.70;;;4.43;;
46835;SDS011;32573;51.290;6.926;2023-06-22T11:13:19;7.10;;;4.53;;
46835;SDS011;32573;51.290;6.926;2023-06-22T11:15:54;7.40;;;4.70;;
46835;SDS011;32573;51.290;6.926;2023-06-22T11:18:24;7.63;;;5.00;;
46835;SDS011;32573;51.290;6.926;2023-06-22T11:20:53;8.00;;;5.05;;
46835;SDS011;32573;51.290;6.926;2023-06-22T11:23:23;7.68;;;5.20;;
46835;SDS011;32573;51.290;6.926;2023-06-22T11:25:53;8.90;;;5.28;;
46835;SDS011;32573;51.290;6.926;2023-06-22T11:28:21;8.70;;;4.88;;
46835;SDS011;32573;51.290;6.926;2023-06-22T11:30:51;8.20;;;5.28;;
46835;SDS011;32573;51.290;6.926;2023-06-22T11:33:20;8.70;;;5.32;;
46835;SDS011;32573;51.290;6.926;2023-06-22T11:35:49;8.98;;;5.47;;
46835;SDS011;32573;51.290;6.926;2023-06-22T11:38:19;9.15;;;5.35;;
46835;SDS011;32573;51.290;6.926;2023-06-22T11:40:49;8.88;;;5.03;;
46835;SDS011;32573;51.290;6.926;2023-06-22T11:43:21;8.35;;;4.97;;
46835;SDS011;32573;51.290;6.926;2023-06-22T11:45:51;9.40;;;5.57;;
46835;SDS011;32573;51.290;6.926;2023-06-22T11:48:22;8.68;;;5.35;;
46835;SDS011;32573;51.290;6.926;2023-06-22T11:50:52;9.23;;;5.13;;
46835;SDS011;32573;51.290;6.926;2023-06-22T11:53:24;9.13;;;5.90;;
46835;SDS011;32573;51.290;6.926;2023-06-22T11:55:55;9.57;;;5.05;;
46835;SDS011;32573;51.290;6.926;2023-06-22T11:58:24;8.68;;;4.97;;
46835;SDS011;32573;51.290;6.926;2023-06-22T12:00:53;9.68;;;5.70;;
46835;SDS011;32573;51.290;6.926;2023-06-22T12:03:23;9.50;;;5.60;;
46835;SDS011;32573;51.290;6.926;2023-06-22T12:05:52;8.88;;;5.97;;
46835;SDS011;32573;51.290;6.926;2023-06-22T12:08:21;9.98;;;5.88;;
46835;SDS011;32573;51.290;6.926;2023-06-22T12:10:50;9.00;;;5.03;;
46835;SDS011;32573;51.290;6.926;2023-06-22T12:13:22;10.45;;;6.13;;
46835;SDS011;32573;51.290;6.926;2023-06-22T12:15:51;8.95;;;5.50;;
46835;SDS011;32573;51.290;6.926;2023-06-22T12:18:20;7.28;;;4.93;;
46835;SDS011;32573;51.290;6.926;2023-06-22T12:20:49;8.63;;;5.07;;
46835;SDS011;32573;51.290;6.926;2023-06-22T12:23:18;8.30;;;5.28;;
46835;SDS011;32573;51.290;6.926;2023-06-22T12:25:50;7.63;;;4.97;;
46835;SDS011;32573;51.290;6.926;2023-06-22T12:28:19;10.00;;;5.60;;
46835;SDS011;32573;51.290;6.926;2023-06-22T12:30:52;6.68;;;4.60;;
46835;SDS011;32573;51.290;6.926;2023-06-22T12:33:23;7.13;;;4.53;;
46835;SDS011;32573;51.290;6.926;2023-06-22T12:35:52;7.97;;;4.93;;
46835;SDS011;32573;51.290;6.926;2023-06-22T12:38:21;8.63;;;4.90;;
46835;SDS011;32573;51.290;6.926;2023-06-22T12:40:51;8.95;;;5.85;;
46835;SDS011;32573;51.290;6.926;2023-06-22T12:43:19;8.75;;;4.90;;
46835;SDS011;32573;51.290;6.926;2023-06-22T12:45:49;8.10;;;5.13;;
46835;SDS011;32573;51.290;6.926;2023-06-22T12:48:19;7.72;;;4.80;;
46835;SDS011;32573;51.290;6.926;2023-06-22T12:50:47;8.02;;;4.80;;
46835;SDS011;32573;51.290;6.926;2023-06-22T12:53:16;8.27;;;5.15;;
46835;SDS011;32573;51.290;6.926;2023-06-22T12:55:48;9.18;;;5.80;;
46835;SDS011;32573;51.290;6.926;2023-06-22T12:58:20;8.70;;;5.70;;
46835;SDS011;32573;51.290;6.926;2023-06-22T13:00:49;9.60;;;6.30;;
46835;SDS011;32573;51.290;6.926;2023-06-22T13:03:21;9.30;;;5.57;;
46835;SDS011;32573;51.290;6.926;2023-06-22T13:05:54;8.55;;;5.43;;
46835;SDS011;32573;51.290;6.926;2023-06-22T13:08:26;9.98;;;6.70;;
46835;SDS011;32573;51.290;6.926;2023-06-22T13:11:17;11.93;;;7.82;;
46835;SDS011;32573;51.290;6.926;2023-06-22T13:13:46;9.50;;;6.28;;
46835;SDS011;32573;51.290;6.926;2023-06-22T13:16:14;9.02;;;5.60;;
46835;SDS011;32573;51.290;6.926;2023-06-22T13:18:44;9.20;;;5.70;;
46835;SDS011;32573;51.290;6.926;2023-06-22T13:21:12;9.68;;;5.30;;
46835;SDS011;32573;51.290;6.926;2023-06-22T13:23:41;8.52;;;5.10;;
46835;SDS011;32573;51.290;6.926;2023-06-22T13:26:10;9.00;;;5.40;;
46835;SDS011;32573;51.290;6.926;2023-06-22T13:28:38;10.57;;;5.82;;
46835;SDS011;32573;51.290;6.926;2023-06-22T13:31:07;7.07;;;4.53;;
46835;SDS011;32573;51.290;6.926;2023-06-22T13:33:35;8.57;;;5.03;;
46835;SDS011;32573;51.290;6.926;2023-06-22T13:36:06;8.27;;;4.70;;
46835;SDS011;32573;51.290;6.926;2023-06-22T13:38:35;8.10;;;5.22;;
46835;SDS011;32573;51.290;6.926;2023-06-22T13:41:05;7.63;;;4.95;;
46835;SDS011;32573;51.290;6.926;2023-06-22T13:43:33;7.72;;;5.00;;
46835;SDS011;32573;51.290;6.926;2023-06-22T13:46:02;9.65;;;5.10;;
46835;SDS011;32573;51.290;6.926;2023-06-22T13:48:32;8.23;;;4.90;;
46835;SDS011;32573;51.290;6.926;2023-06-22T13:51:01;6.95;;;4.05;;
46835;SDS011;32573;51.290;6.926;2023-06-22T13:53:31;7.57;;;4.50;;
46835;SDS011;32573;51.290;6.926;2023-06-22T13:55:59;7.82;;;4.82;;
46835;SDS011;32573;51.290;6.926;2023-06-22T13:58:27;7.95;;;4.88;;
46835;SDS011;32573;51.290;6.926;2023-06-22T14:00:56;7.38;;;4.40;;
46835;SDS011;32573;51.290;6.926;2023-06-22T14:03:28;7.22;;;4.32;;
46835;SDS011;32573;51.290;6.926;2023-06-22T14:05:57;8.55;;;5.63;;
46835;SDS011;32573;51.290;6.926;2023-06-22T14:08:25;8.50;;;5.72;;
46835;SDS011;32573;51.290;6.926;2023-06-22T14:10:58;9.13;;;5.28;;
46835;SDS011;32573;51.290;6.926;2023-06-22T14:13:27;8.55;;;5.10;;
46835;SDS011;32573;51.290;6.926;2023-06-22T14:15:55;8.85;;;5.00;;
46835;SDS011;32573;51.290;6.926;2023-06-22T14:18:23;7.00;;;4.80;;
46835;SDS011;32573;51.290;6.926;2023-06-22T14:20:52;10.57;;;5.60;;
46835;SDS011;32573;51.290;6.926;2023-06-22T14:23:20;9.10;;;5.63;;
46835;SDS011;32573;51.290;6.926;2023-06-22T14:25:49;8.98;;;5.53;;
46835;SDS011;32573;51.290;6.926;2023-06-22T14:28:18;9.25;;;6.35;;
46835;SDS011;32573;51.290;6.926;2023-06-22T14:30:47;8.48;;;5.80;;
46835;SDS011;32573;51.290;6.926;2023-06-22T14:33:15;12.10;;;7.45;;
46835;SDS011;32573;51.290;6.926;2023-06-22T14:35:44;10.70;;;6.20;;
46835;SDS011;32573;51.290;6.926;2023-06-22T14:38:12;9.60;;;6.25;;
46835;SDS011;32573;51.290;6.926;2023-06-22T14:40:41;11.82;;;6.68;;
46835;SDS011;32573;51.290;6.926;2023-06-22T14:43:31;10.90;;;6.60;;
46835;SDS011;32573;51.290;6.926;2023-06-22T14:45:59;11.52;;;7.32;;
46835;SDS011;32573;51.290;6.926;2023-06-22T14:48:28;8.93;;;5.78;;
46835;SDS011;32573;51.290;6.926;2023-06-22T14:50:57;9.10;;;5.72;;
46835;SDS011;32573;51.290;6.926;2023-06-22T14:53:27;12.10;;;7.00;;
46835;SDS011;32573;51.290;6.926;2023-06-22T14:55:55;10.45;;;6.30;;
46835;SDS011;32573;51.290;6.926;2023-06-22T14:58:23;9.32;;;5.43;;
46835;SDS011;32573;51.290;6.926;2023-06-22T15:00:53;9.40;;;5.78;;
46835;SDS011;32573;51.290;6.926;2023-06-22T15:03:22;9.45;;;6.32;;